sensor_id;sensor_type;location;lat;lon;timestamp;pressure;altitude;pressure_sealevel;temperature;humidity
78751;BME280;68070;50.954;11.060;2023-04-03T00:02:39;100250.41;;;0.87;75.72
78751;BME280;68070;50.954;11.060;2023-04-03T00:05:24;100251.66;;;0.86;75.66
78751;BME280;68070;50.954;11.060;2023-04-03T00:08:09;100250.77;;;0.87;75.82
78751;BME280;68070;50.954;11.060;2023-04-03T00:10:54;100250.84;;;0.82;75.51
78751;BME280;68070;50.954;11.060;2023-04-03T00:13:39;100259.97;;;0.80;75.62
78751;BME280;68070;50.954;11.060;2023-04-03T00:16:24;100258.87;;;0.84;75.63
78751;BME280;68070;50.954;11.060;2023-04-03T00:19:08;100257.64;;;0.84;75.74
78751;BME280;68070;50.954;11.060;2023-04-03T00:21:55;100258.36;;;0.83;75.57
78751;BME280;68070;50.954;11.060;2023-04-03T00:24:40;100258.75;;;0.80;75.84
78751;BME280;68070;50.954;11.060;2023-04-03T00:27:24;100257.73;;;0.78;75.74
78751;BME280;68070;50.954;11.060;2023-04-03T00:30:09;100256.95;;;0.73;75.76
78751;BME280;68070;50.954;11.060;2023-04-03T00:32:56;100256.86;;;0.66;75.68
78751;BME280;68070;50.954;11.060;2023-04-03T00:35:40;100261.71;;;0.69;76.07
78751;BME280;68070;50.954;11.060;2023-04-03T00:38:25;100262.58;;;0.71;76.69
78751;BME280;68070;50.954;11.060;2023-04-03T00:41:10;100265.86;;;0.73;76.98
78751;BME280;68070;50.954;11.060;2023-04-03T00:43:54;100266.65;;;0.67;76.31
78751;BME280;68070;50.954;11.060;2023-04-03T00:46:39;100268.11;;;0.64;76.49
78751;BME280;68070;50.954;11.060;2023-04-03T00:49:23;100270.39;;;0.63;76.74
78751;BME280;68070;50.954;11.060;2023-04-03T00:52:12;100268.71;;;0.70;76.94
78751;BME280;68070;50.954;11.060;2023-04-03T00:55:00;100270.11;;;0.71;77.71
78751;BME280;68070;50.954;11.060;2023-04-03T00:57:46;100261.00;;;0.70;77.59
78751;BME280;68070;50.954;11.060;2023-04-03T01:00:31;100267.54;;;0.67;77.23
78751;BME280;68070;50.954;11.060;2023-04-03T01:03:16;100261.10;;;0.64;77.05
78751;BME280;68070;50.954;11.060;2023-04-03T01:06:01;100262.56;;;0.59;76.87
78751;BME280;68070;50.954;11.060;2023-04-03T01:08:48;100264.67;;;0.58;77.23
78751;BME280;68070;50.954;11.060;2023-04-03T01:11:33;100265.52;;;0.61;77.35
78751;BME280;68070;50.954;11.060;2023-04-03T01:14:19;100266.31;;;0.67;78.29
78751;BME280;68070;50.954;11.060;2023-04-03T01:17:03;100265.39;;;0.70;78.96
78751;BME280;68070;50.954;11.060;2023-04-03T01:19:57;100265.10;;;0.66;78.12
78751;BME280;68070;50.954;11.060;2023-04-03T01:22:59;100263.13;;;0.56;78.26
78751;BME280;68070;50.954;11.060;2023-04-03T01:25:49;100267.63;;;0.47;77.89
78751;BME280;68070;50.954;11.060;2023-04-03T01:28:35;100267.17;;;0.42;77.88
78751;BME280;68070;50.954;11.060;2023-04-03T01:31:27;100272.46;;;0.40;78.19
78751;BME280;68070;50.954;11.060;2023-04-03T01:34:12;100273.74;;;0.37;78.57
78751;BME280;68070;50.954;11.060;2023-04-03T01:36:56;100278.03;;;0.29;78.18
78751;BME280;68070;50.954;11.060;2023-04-03T01:39:41;100277.30;;;0.18;78.29
78751;BME280;68070;50.954;11.060;2023-04-03T01:42:26;100276.30;;;0.13;78.13
78751;BME280;68070;50.954;11.060;2023-04-03T01:45:11;100278.96;;;0.10;78.13
78751;BME280;68070;50.954;11.060;2023-04-03T01:47:55;100284.09;;;0.20;78.99
78751;BME280;68070;50.954;11.060;2023-04-03T01:50:42;100282.45;;;0.11;78.26
78751;BME280;68070;50.954;11.060;2023-04-03T01:53:26;100278.48;;;0.07;79.00
78751;BME280;68070;50.954;11.060;2023-04-03T01:56:11;100281.98;;;0.06;78.91
78751;BME280;68070;50.954;11.060;2023-04-03T01:58:55;100284.89;;;0.12;79.04
78751;BME280;68070;50.954;11.060;2023-04-03T02:01:40;100284.55;;;0.13;78.49
78751;BME280;68070;50.954;11.060;2023-04-03T02:04:25;100290.99;;;0.15;79.18
78751;BME280;68070;50.954;11.060;2023-04-03T02:07:09;100291.88;;;0.14;78.96
78751;BME280;68070;50.954;11.060;2023-04-03T02:09:54;100293.10;;;0.14;79.74
78751;BME280;68070;50.954;11.060;2023-04-03T02:12:39;100296.38;;;0.03;79.79
78751;BME280;68070;50.954;11.060;2023-04-03T02:15:23;100291.75;;;0.10;79.78
78751;BME280;68070;50.954;11.060;2023-04-03T02:18:08;100299.77;;;0.12;79.53
78751;BME280;68070;50.954;11.060;2023-04-03T02:20:53;100301.04;;;0.08;79.21
78751;BME280;68070;50.954;11.060;2023-04-03T02:23:38;100299.79;;;0.11;79.14
78751;BME280;68070;50.954;11.060;2023-04-03T02:26:22;100302.08;;;0.09;78.68
78751;BME280;68070;50.954;11.060;2023-04-03T02:29:06;100303.94;;;0.16;78.79
78751;BME280;68070;50.954;11.060;2023-04-03T02:31:53;100300.77;;;0.16;78.60
78751;BME280;68070;50.954;11.060;2023-04-03T02:34:38;100302.85;;;0.04;78.21
78751;BME280;68070;50.954;11.060;2023-04-03T02:37:23;100302.86;;;0.04;78.68
78751;BME280;68070;50.954;11.060;2023-04-03T02:40:08;100306.38;;;0.01;77.59
78751;BME280;68070;50.954;11.060;2023-04-03T02:42:54;100309.55;;;0.00;78.44
78751;BME280;68070;50.954;11.060;2023-04-03T02:45:39;100310.96;;;-0.03;78.66
78751;BME280;68070;50.954;11.060;2023-04-03T02:48:24;100309.23;;;-0.05;78.14
78751;BME280;68070;50.954;11.060;2023-04-03T02:51:09;100308.84;;;-0.00;78.21
78751;BME280;68070;50.954;11.060;2023-04-03T02:53:53;100310.73;;;0.04;78.06
78751;BME280;68070;50.954;11.060;2023-04-03T02:56:41;100305.64;;;0.05;78.06
78751;BME280;68070;50.954;11.060;2023-04-03T02:59:25;100306.36;;;0.03;78.11
78751;BME280;68070;50.954;11.060;2023-04-03T03:02:10;100303.45;;;-0.03;77.77
78751;BME280;68070;50.954;11.060;2023-04-03T03:04:55;100302.94;;;-0.04;78.41
78751;BME280;68070;50.954;11.060;2023-04-03T03:07:42;100303.79;;;-0.02;77.98
78751;BME280;68070;50.954;11.060;2023-04-03T03:10:26;100304.90;;;-0.08;78.56
78751;BME280;68070;50.954;11.060;2023-04-03T03:13:10;100302.67;;;-0.12;78.15
78751;BME280;68070;50.954;11.060;2023-04-03T03:15:55;100307.84;;;-0.20;78.36
78751;BME280;68070;50.954;11.060;2023-04-03T03:18:40;100305.55;;;-0.20;78.05
78751;BME280;68070;50.954;11.060;2023-04-03T03:21:24;100302.45;;;-0.25;78.19
78751;BME280;68070;50.954;11.060;2023-04-03T03:24:09;100306.70;;;-0.29;78.21
78751;BME280;68070;50.954;11.060;2023-04-03T03:26:53;100310.28;;;-0.38;78.69
78751;BME280;68070;50.954;11.060;2023-04-03T03:29:38;100315.27;;;-0.46;79.36
78751;BME280;68070;50.954;11.060;2023-04-03T03:32:23;100317.44;;;-0.37;78.73
78751;BME280;68070;50.954;11.060;2023-04-03T03:35:07;100316.98;;;-0.44;78.48
78751;BME280;68070;50.954;11.060;2023-04-03T03:37:51;100315.50;;;-0.54;78.56
78751;BME280;68070;50.954;11.060;2023-04-03T03:40:36;100311.41;;;-0.46;79.32
78751;BME280;68070;50.954;11.060;2023-04-03T03:43:21;100315.27;;;-0.47;78.20
78751;BME280;68070;50.954;11.060;2023-04-03T03:46:06;100315.42;;;-0.45;78.46
78751;BME280;68070;50.954;11.060;2023-04-03T03:48:51;100322.27;;;-0.48;78.76
78751;BME280;68070;50.954;11.060;2023-04-03T03:51:35;100326.81;;;-0.48;78.60
78751;BME280;68070;50.954;11.060;2023-04-03T03:54:20;100327.65;;;-0.42;78.45
78751;BME280;68070;50.954;11.060;2023-04-03T03:57:05;100324.33;;;-0.43;78.36
78751;BME280;68070;50.954;11.060;2023-04-03T03:59:49;100324.02;;;-0.47;78.79
78751;BME280;68070;50.954;11.060;2023-04-03T04:02:36;100324.89;;;-0.48;78.01
78751;BME280;68070;50.954;11.060;2023-04-03T04:05:21;100325.27;;;-0.52;77.84
78751;BME280;68070;50.954;11.060;2023-04-03T04:08:06;100333.83;;;-0.48;78.56
78751;BME280;68070;50.954;11.060;2023-04-03T04:10:50;100336.64;;;-0.51;78.63
78751;BME280;68070;50.954;11.060;2023-04-03T04:13:36;100338.59;;;-0.54;78.46
78751;BME280;68070;50.954;11.060;2023-04-03T04:16:20;100341.48;;;-0.66;78.70
78751;BME280;68070;50.954;11.060;2023-04-03T04:19:05;100340.73;;;-0.61;78.88
78751;BME280;68070;50.954;11.060;2023-04-03T04:21:49;100339.66;;;-0.58;78.30
78751;BME280;68070;50.954;11.060;2023-04-03T04:24:34;100345.52;;;-0.67;79.12
78751;BME280;68070;50.954;11.060;2023-04-03T04:27:19;100345.01;;;-0.70;78.72
78751;BME280;68070;50.954;11.060;2023-04-03T04:30:04;100348.88;;;-0.74;78.58
78751;BME280;68070;50.954;11.060;2023-04-03T04:32:49;100352.14;;;-0.66;78.79
78751;BME280;68070;50.954;11.060;2023-04-03T04:35:35;100354.84;;;-0.74;79.10
78751;BME280;68070;50.954;11.060;2023-04-03T04:38:20;100355.60;;;-0.81;78.66
78751;BME280;68070;50.954;11.060;2023-04-03T04:41:05;100359.73;;;-0.76;78.51
78751;BME280;68070;50.954;11.060;2023-04-03T04:43:52;100363.73;;;-0.72;78.92
78751;BME280;68070;50.954;11.060;2023-04-03T04:46:36;100363.42;;;-0.78;78.44
78751;BME280;68070;50.954;11.060;2023-04-03T04:49:22;100364.67;;;-0.81;79.17
78751;BME280;68070;50.954;11.060;2023-04-03T04:52:06;100360.99;;;-0.83;78.79
78751;BME280;68070;50.954;11.060;2023-04-03T04:54:52;100365.91;;;-0.82;78.89
78751;BME280;68070;50.954;11.060;2023-04-03T04:57:36;100360.40;;;-0.72;79.22
78751;BME280;68070;50.954;11.060;2023-04-03T05:00:23;100366.71;;;-0.74;78.49
78751;BME280;68070;50.954;11.060;2023-04-03T05:03:08;100371.50;;;-0.84;78.32
78751;BME280;68070;50.954;11.060;2023-04-03T05:05:53;100376.08;;;-0.89;78.54
78751;BME280;68070;50.954;11.060;2023-04-03T05:08:37;100375.73;;;-0.89;78.06
78751;BME280;68070;50.954;11.060;2023-04-03T05:11:23;100381.69;;;-0.89;78.41
78751;BME280;68070;50.954;11.060;2023-04-03T05:14:08;100382.40;;;-0.91;78.58
78751;BME280;68070;50.954;11.060;2023-04-03T05:16:53;100383.28;;;-0.94;78.27
78751;BME280;68070;50.954;11.060;2023-04-03T05:19:39;100388.13;;;-0.88;78.09
78751;BME280;68070;50.954;11.060;2023-04-03T05:22:23;100381.36;;;-0.95;78.44
78751;BME280;68070;50.954;11.060;2023-04-03T05:25:09;100386.27;;;-0.97;78.18
78751;BME280;68070;50.954;11.060;2023-04-03T05:27:54;100389.22;;;-0.95;78.50
78751;BME280;68070;50.954;11.060;2023-04-03T05:30:40;100387.65;;;-0.96;78.30
78751;BME280;68070;50.954;11.060;2023-04-03T05:33:25;100390.48;;;-0.99;78.76
78751;BME280;68070;50.954;11.060;2023-04-03T05:36:11;100389.27;;;-1.01;78.94
78751;BME280;68070;50.954;11.060;2023-04-03T05:39:00;100395.21;;;-1.02;79.02
78751;BME280;68070;50.954;11.060;2023-04-03T05:41:45;100396.94;;;-1.00;78.46
78751;BME280;68070;50.954;11.060;2023-04-03T05:44:30;100395.02;;;-0.99;78.23
78751;BME280;68070;50.954;11.060;2023-04-03T05:47:14;100399.36;;;-0.96;78.76
78751;BME280;68070;50.954;11.060;2023-04-03T05:49:59;100398.06;;;-0.82;78.12
78751;BME280;68070;50.954;11.060;2023-04-03T05:52:45;100401.67;;;-0.75;78.10
78751;BME280;68070;50.954;11.060;2023-04-03T05:55:32;100401.48;;;-0.70;77.73
78751;BME280;68070;50.954;11.060;2023-04-03T05:58:17;100411.59;;;-0.67;77.61
78751;BME280;68070;50.954;11.060;2023-04-03T06:01:04;100414.38;;;-0.66;77.62
78751;BME280;68070;50.954;11.060;2023-04-03T06:03:50;100418.69;;;-0.57;77.75
78751;BME280;68070;50.954;11.060;2023-04-03T06:06:54;100421.36;;;-0.40;77.87
78751;BME280;68070;50.954;11.060;2023-04-03T06:09:39;100432.41;;;-0.43;77.06
78751;BME280;68070;50.954;11.060;2023-04-03T06:12:24;100433.08;;;-0.40;77.21
78751;BME280;68070;50.954;11.060;2023-04-03T06:15:09;100436.74;;;-0.39;77.09
78751;BME280;68070;50.954;11.060;2023-04-03T06:17:54;100435.05;;;-0.44;76.94
78751;BME280;68070;50.954;11.060;2023-04-03T06:20:39;100440.33;;;-0.48;77.16
78751;BME280;68070;50.954;11.060;2023-04-03T06:23:24;100437.13;;;-0.42;77.21
78751;BME280;68070;50.954;11.060;2023-04-03T06:26:08;100438.38;;;-0.48;76.73
78751;BME280;68070;50.954;11.060;2023-04-03T06:28:52;100437.88;;;-0.50;76.63
78751;BME280;68070;50.954;11.060;2023-04-03T06:31:37;100439.71;;;-0.38;77.17
78751;BME280;68070;50.954;11.060;2023-04-03T06:34:22;100444.41;;;-0.34;76.86
78751;BME280;68070;50.954;11.060;2023-04-03T06:37:11;100450.02;;;-0.36;76.17
78751;BME280;68070;50.954;11.060;2023-04-03T06:39:58;100457.41;;;-0.43;76.24
78751;BME280;68070;50.954;11.060;2023-04-03T06:42:45;100455.95;;;-0.33;76.08
78751;BME280;68070;50.954;11.060;2023-04-03T06:45:30;100453.73;;;-0.17;76.69
78751;BME280;68070;50.954;11.060;2023-04-03T06:48:14;100449.89;;;0.02;75.63
78751;BME280;68070;50.954;11.060;2023-04-03T06:50:59;100448.51;;;0.19;74.55
78751;BME280;68070;50.954;11.060;2023-04-03T06:53:43;100445.48;;;0.40;73.66
78751;BME280;68070;50.954;11.060;2023-04-03T06:56:28;100446.38;;;0.55;72.64
78751;BME280;68070;50.954;11.060;2023-04-03T06:59:13;100450.10;;;0.66;72.10
78751;BME280;68070;50.954;11.060;2023-04-03T07:01:59;100461.94;;;1.02;71.11
78751;BME280;68070;50.954;11.060;2023-04-03T07:04:44;100461.02;;;0.91;69.98
78751;BME280;68070;50.954;11.060;2023-04-03T07:07:28;100465.17;;;0.96;69.60
78751;BME280;68070;50.954;11.060;2023-04-03T07:10:12;100465.52;;;1.47;68.48
78751;BME280;68070;50.954;11.060;2023-04-03T07:12:57;100470.36;;;2.18;66.30
78751;BME280;68070;50.954;11.060;2023-04-03T07:15:42;100468.30;;;2.06;66.26
78751;BME280;68070;50.954;11.060;2023-04-03T07:18:26;100469.67;;;2.17;65.70
78751;BME280;68070;50.954;11.060;2023-04-03T07:21:11;100473.35;;;3.73;61.24
78751;BME280;68070;50.954;11.060;2023-04-03T07:23:55;100481.27;;;3.50;59.81
78751;BME280;68070;50.954;11.060;2023-04-03T07:26:40;100481.73;;;2.69;61.57
78751;BME280;68070;50.954;11.060;2023-04-03T07:29:25;100486.66;;;2.11;62.80
78751;BME280;68070;50.954;11.060;2023-04-03T07:32:10;100492.89;;;1.47;63.93
78751;BME280;68070;50.954;11.060;2023-04-03T07:34:54;100494.92;;;1.52;65.22
78751;BME280;68070;50.954;11.060;2023-04-03T07:37:39;100504.78;;;1.63;65.24
78751;BME280;68070;50.954;11.060;2023-04-03T07:40:23;100507.27;;;1.73;64.90
78751;BME280;68070;50.954;11.060;2023-04-03T07:43:09;100506.75;;;2.35;62.49
78751;BME280;68070;50.954;11.060;2023-04-03T07:45:54;100517.37;;;2.62;59.61
78751;BME280;68070;50.954;11.060;2023-04-03T07:48:38;100508.95;;;2.98;59.10
78751;BME280;68070;50.954;11.060;2023-04-03T07:51:22;100510.58;;;3.22;59.82
78751;BME280;68070;50.954;11.060;2023-04-03T07:54:08;100512.63;;;3.57;57.37
78751;BME280;68070;50.954;11.060;2023-04-03T07:56:53;100516.57;;;4.00;57.21
78751;BME280;68070;50.954;11.060;2023-04-03T07:59:37;100518.34;;;3.46;57.64
78751;BME280;68070;50.954;11.060;2023-04-03T08:02:22;100515.75;;;3.10;57.97
78751;BME280;68070;50.954;11.060;2023-04-03T08:05:07;100521.09;;;2.89;59.09
78751;BME280;68070;50.954;11.060;2023-04-03T08:07:51;100521.61;;;3.14;58.74
78751;BME280;68070;50.954;11.060;2023-04-03T08:10:36;100520.54;;;3.81;57.55
78751;BME280;68070;50.954;11.060;2023-04-03T08:13:22;100525.16;;;3.48;56.50
78751;BME280;68070;50.954;11.060;2023-04-03T08:16:08;100523.55;;;3.56;56.22
78751;BME280;68070;50.954;11.060;2023-04-03T08:18:54;100532.63;;;4.06;53.94
78751;BME280;68070;50.954;11.060;2023-04-03T08:21:40;100530.21;;;5.31;51.51
78751;BME280;68070;50.954;11.060;2023-04-03T08:24:25;100533.58;;;5.84;49.19
78751;BME280;68070;50.954;11.060;2023-04-03T08:27:10;100531.09;;;7.34;47.94
78751;BME280;68070;50.954;11.060;2023-04-03T08:29:55;100528.31;;;9.46;45.95
78751;BME280;68070;50.954;11.060;2023-04-03T08:32:40;100526.55;;;11.09;41.01
78751;BME280;68070;50.954;11.060;2023-04-03T08:35:28;100528.44;;;12.14;37.90
78751;BME280;68070;50.954;11.060;2023-04-03T08:38:12;100518.94;;;12.76;35.92
78751;BME280;68070;50.954;11.060;2023-04-03T08:41:28;100524.96;;;12.32;34.84
78751;BME280;68070;50.954;11.060;2023-04-03T08:44:37;100525.88;;;12.55;33.68
78751;BME280;68070;50.954;11.060;2023-04-03T08:47:41;100523.20;;;13.41;33.94
78751;BME280;68070;50.954;11.060;2023-04-03T08:50:38;100524.66;;;13.32;32.30
78751;BME280;68070;50.954;11.060;2023-04-03T08:53:32;100525.33;;;13.01;30.63
78751;BME280;68070;50.954;11.060;2023-04-03T08:56:18;100523.27;;;12.90;31.94
78751;BME280;68070;50.954;11.060;2023-04-03T08:59:12;100530.36;;;12.55;31.01
78751;BME280;68070;50.954;11.060;2023-04-03T09:02:00;100530.34;;;12.82;30.47
78751;BME280;68070;50.954;11.060;2023-04-03T09:04:49;100528.93;;;11.54;32.79
78751;BME280;68070;50.954;11.060;2023-04-03T09:07:43;100532.38;;;9.91;34.31
78751;BME280;68070;50.954;11.060;2023-04-03T09:10:29;100537.77;;;8.22;37.34
78751;BME280;68070;50.954;11.060;2023-04-03T09:13:46;100535.54;;;7.00;39.43
78751;BME280;68070;50.954;11.060;2023-04-03T09:16:49;100531.42;;;5.91;41.70
78751;BME280;68070;50.954;11.060;2023-04-03T09:19:48;100532.56;;;4.98;43.97
78751;BME280;68070;50.954;11.060;2023-04-03T09:22:38;100534.11;;;5.06;43.14
78751;BME280;68070;50.954;11.060;2023-04-03T09:25:32;100526.15;;;4.94;43.33
78751;BME280;68070;50.954;11.060;2023-04-03T09:28:18;100524.25;;;4.92;43.88
78751;BME280;68070;50.954;11.060;2023-04-03T09:31:14;100522.50;;;4.92;44.67
78751;BME280;68070;50.954;11.060;2023-04-03T09:34:03;100525.89;;;5.22;44.61
78751;BME280;68070;50.954;11.060;2023-04-03T09:36:52;100524.90;;;5.13;44.48
78751;BME280;68070;50.954;11.060;2023-04-03T09:39:53;100528.00;;;4.97;44.25
78751;BME280;68070;50.954;11.060;2023-04-03T09:42:40;100527.49;;;4.70;44.31
78751;BME280;68070;50.954;11.060;2023-04-03T09:45:44;100523.53;;;4.60;44.95
78751;BME280;68070;50.954;11.060;2023-04-03T09:48:29;100529.58;;;4.23;45.42
78751;BME280;68070;50.954;11.060;2023-04-03T09:51:15;100526.95;;;3.93;45.87
78751;BME280;68070;50.954;11.060;2023-04-03T09:53:59;100524.94;;;4.04;46.76
78751;BME280;68070;50.954;11.060;2023-04-03T09:56:49;100518.36;;;5.73;44.73
78751;BME280;68070;50.954;11.060;2023-04-03T09:59:36;100516.09;;;5.78;42.45
78751;BME280;68070;50.954;11.060;2023-04-03T10:02:30;100521.45;;;6.32;41.06
78751;BME280;68070;50.954;11.060;2023-04-03T10:05:33;100521.86;;;5.85;39.45
78751;BME280;68070;50.954;11.060;2023-04-03T10:08:30;100519.20;;;5.68;41.21
78751;BME280;68070;50.954;11.060;2023-04-03T10:11:17;100517.52;;;5.19;42.19
78751;BME280;68070;50.954;11.060;2023-04-03T10:14:03;100513.07;;;5.26;42.06
78751;BME280;68070;50.954;11.060;2023-04-03T10:17:18;100518.80;;;6.20;41.69
78751;BME280;68070;50.954;11.060;2023-04-03T10:23:28;100507.16;;;9.54;37.43
78751;BME280;68070;50.954;11.060;2023-04-03T10:39:56;100496.92;;;5.35;42.84
78751;BME280;68070;50.954;11.060;2023-04-03T10:45:44;100499.71;;;6.68;40.17
78751;BME280;68070;50.954;11.060;2023-04-03T10:48:39;100491.70;;;6.48;41.58
78751;BME280;68070;50.954;11.060;2023-04-03T10:51:53;100491.02;;;6.58;41.89
78751;BME280;68070;50.954;11.060;2023-04-03T10:54:40;100489.89;;;5.97;43.33
78751;BME280;68070;50.954;11.060;2023-04-03T10:57:25;100493.36;;;5.41;43.21
78751;BME280;68070;50.954;11.060;2023-04-03T11:00:38;100490.03;;;5.17;45.80
78751;BME280;68070;50.954;11.060;2023-04-03T11:04:09;100486.89;;;5.03;46.00
78751;BME280;68070;50.954;11.060;2023-04-03T11:06:43;100485.88;;;4.63;45.58
78751;BME280;68070;50.954;11.060;2023-04-03T11:09:40;100484.46;;;4.70;45.37
78751;BME280;68070;50.954;11.060;2023-04-03T11:12:31;100479.88;;;4.95;45.49
78751;BME280;68070;50.954;11.060;2023-04-03T11:15:20;100477.62;;;5.00;45.23
78751;BME280;68070;50.954;11.060;2023-04-03T11:18:13;100475.08;;;5.39;44.96
78751;BME280;68070;50.954;11.060;2023-04-03T11:21:04;100475.72;;;6.09;42.64
78751;BME280;68070;50.954;11.060;2023-04-03T11:23:53;100473.15;;;5.79;42.80
78751;BME280;68070;50.954;11.060;2023-04-03T11:26:41;100466.25;;;5.39;43.55
78751;BME280;68070;50.954;11.060;2023-04-03T11:29:32;100466.71;;;5.70;42.56
78751;BME280;68070;50.954;11.060;2023-04-03T11:35:16;100458.52;;;7.38;40.34
78751;BME280;68070;50.954;11.060;2023-04-03T11:38:04;100456.30;;;7.89;38.55
78751;BME280;68070;50.954;11.060;2023-04-03T11:40:54;100460.35;;;7.59;37.94
78751;BME280;68070;50.954;11.060;2023-04-03T11:43:59;100454.52;;;7.04;39.69
78751;BME280;68070;50.954;11.060;2023-04-03T11:46:54;100462.23;;;6.32;40.49
78751;BME280;68070;50.954;11.060;2023-04-03T11:50:03;100448.93;;;6.07;42.00
78751;BME280;68070;50.954;11.060;2023-04-03T11:58:26;100452.61;;;5.52;44.45
78751;BME280;68070;50.954;11.060;2023-04-03T12:01:47;100449.86;;;5.14;44.59
78751;BME280;68070;50.954;11.060;2023-04-03T12:04:32;100444.88;;;4.85;45.69
78751;BME280;68070;50.954;11.060;2023-04-03T12:07:18;100440.34;;;4.96;45.43
78751;BME280;68070;50.954;11.060;2023-04-03T12:10:14;100438.59;;;5.08;42.54
78751;BME280;68070;50.954;11.060;2023-04-03T12:13:01;100437.02;;;5.07;40.91
78751;BME280;68070;50.954;11.060;2023-04-03T12:15:50;100428.58;;;5.52;42.18
78751;BME280;68070;50.954;11.060;2023-04-03T12:18:55;100425.82;;;6.00;40.54
78751;BME280;68070;50.954;11.060;2023-04-03T12:24:53;100423.27;;;6.08;41.02
78751;BME280;68070;50.954;11.060;2023-04-03T12:27:42;100425.86;;;5.76;42.03
78751;BME280;68070;50.954;11.060;2023-04-03T12:30:30;100422.73;;;5.64;43.36
78751;BME280;68070;50.954;11.060;2023-04-03T12:33:31;100427.15;;;5.30;43.40
78751;BME280;68070;50.954;11.060;2023-04-03T12:36:36;100425.02;;;5.07;43.91
78751;BME280;68070;50.954;11.060;2023-04-03T12:42:19;100418.26;;;4.85;43.99
78751;BME280;68070;50.954;11.060;2023-04-03T12:45:22;100409.17;;;5.07;43.60
78751;BME280;68070;50.954;11.060;2023-04-03T12:48:20;100401.88;;;5.48;42.07
78751;BME280;68070;50.954;11.060;2023-04-03T12:51:06;100394.98;;;5.98;40.53
78751;BME280;68070;50.954;11.060;2023-04-03T12:53:52;100398.27;;;5.77;39.85
78751;BME280;68070;50.954;11.060;2023-04-03T12:56:40;100400.49;;;5.47;41.29
78751;BME280;68070;50.954;11.060;2023-04-03T12:59:27;100396.42;;;5.36;42.08
78751;BME280;68070;50.954;11.060;2023-04-03T13:05:09;100396.10;;;4.83;42.95
78751;BME280;68070;50.954;11.060;2023-04-03T13:08:02;100389.61;;;4.82;42.34
78751;BME280;68070;50.954;11.060;2023-04-03T13:10:52;100387.84;;;5.17;42.00
78751;BME280;68070;50.954;11.060;2023-04-03T13:13:38;100380.03;;;5.63;41.73
78751;BME280;68070;50.954;11.060;2023-04-03T13:16:23;100383.36;;;5.69;39.64
78751;BME280;68070;50.954;11.060;2023-04-03T13:19:16;100390.51;;;5.34;40.52
78751;BME280;68070;50.954;11.060;2023-04-03T13:22:07;100391.58;;;4.93;42.24
78751;BME280;68070;50.954;11.060;2023-04-03T13:24:53;100392.02;;;5.01;40.82
78751;BME280;68070;50.954;11.060;2023-04-03T13:27:38;100385.34;;;5.68;41.65
78751;BME280;68070;50.954;11.060;2023-04-03T13:30:33;100378.19;;;5.92;41.44
78751;BME280;68070;50.954;11.060;2023-04-03T13:33:23;100393.83;;;5.73;40.06
78751;BME280;68070;50.954;11.060;2023-04-03T13:36:18;100389.10;;;5.61;39.92
78751;BME280;68070;50.954;11.060;2023-04-03T13:42:14;100376.80;;;5.91;40.75
78751;BME280;68070;50.954;11.060;2023-04-03T13:48:18;100381.15;;;5.67;40.53
78751;BME280;68070;50.954;11.060;2023-04-03T13:54:01;100368.27;;;5.77;41.11
78751;BME280;68070;50.954;11.060;2023-04-03T13:56:59;100376.10;;;5.59;41.17
78751;BME280;68070;50.954;11.060;2023-04-03T13:59:44;100374.77;;;5.40;41.17
78751;BME280;68070;50.954;11.060;2023-04-03T14:02:32;100378.34;;;5.05;42.06
78751;BME280;68070;50.954;11.060;2023-04-03T14:05:16;100370.08;;;5.03;42.08
78751;BME280;68070;50.954;11.060;2023-04-03T14:08:05;100363.68;;;5.39;42.11
78751;BME280;68070;50.954;11.060;2023-04-03T14:10:52;100365.23;;;5.77;41.16
78751;BME280;68070;50.954;11.060;2023-04-03T14:13:36;100358.40;;;5.98;39.66
78751;BME280;68070;50.954;11.060;2023-04-03T14:16:25;100358.13;;;6.21;39.79
78751;BME280;68070;50.954;11.060;2023-04-03T14:19:33;100357.06;;;6.06;40.43
78751;BME280;68070;50.954;11.060;2023-04-03T14:22:21;100364.86;;;5.46;41.22
78751;BME280;68070;50.954;11.060;2023-04-03T14:25:06;100361.67;;;5.18;41.50
78751;BME280;68070;50.954;11.060;2023-04-03T14:27:52;100361.64;;;4.96;42.17
78751;BME280;68070;50.954;11.060;2023-04-03T14:30:38;100362.67;;;4.91;42.73
78751;BME280;68070;50.954;11.060;2023-04-03T14:33:22;100361.06;;;4.74;42.18
78751;BME280;68070;50.954;11.060;2023-04-03T14:36:12;100357.97;;;4.60;41.91
78751;BME280;68070;50.954;11.060;2023-04-03T14:38:58;100354.79;;;4.84;42.23
78751;BME280;68070;50.954;11.060;2023-04-03T14:41:43;100354.65;;;5.40;41.38
78751;BME280;68070;50.954;11.060;2023-04-03T14:44:27;100356.26;;;5.55;40.88
78751;BME280;68070;50.954;11.060;2023-04-03T14:47:14;100360.52;;;5.39;40.24
78751;BME280;68070;50.954;11.060;2023-04-03T14:50:00;100366.02;;;5.15;41.30
78751;BME280;68070;50.954;11.060;2023-04-03T14:52:45;100359.13;;;5.26;41.78
78751;BME280;68070;50.954;11.060;2023-04-03T14:55:30;100358.30;;;5.25;42.16
78751;BME280;68070;50.954;11.060;2023-04-03T14:58:18;100357.38;;;5.21;42.15
78751;BME280;68070;50.954;11.060;2023-04-03T15:01:02;100356.27;;;4.99;41.53
78751;BME280;68070;50.954;11.060;2023-04-03T15:03:47;100350.77;;;4.88;41.79
78751;BME280;68070;50.954;11.060;2023-04-03T15:06:32;100344.96;;;4.88;42.60
78751;BME280;68070;50.954;11.060;2023-04-03T15:09:26;100344.65;;;4.81;43.42
78751;BME280;68070;50.954;11.060;2023-04-03T15:12:11;100341.86;;;4.86;43.57
78751;BME280;68070;50.954;11.060;2023-04-03T15:14:57;100343.44;;;4.80;44.31
78751;BME280;68070;50.954;11.060;2023-04-03T15:17:42;100346.66;;;4.85;44.57
78751;BME280;68070;50.954;11.060;2023-04-03T15:20:28;100349.88;;;4.77;44.13
78751;BME280;68070;50.954;11.060;2023-04-03T15:23:16;100347.40;;;4.71;42.92